Hood River, OR

8:16 AM PST on November 28, 2014 (GMT -0800)
Rockford | Change Station
CLOSE
Current Station
Personal Weather Station
Location: Hood River, OR
Elevation: 801 ft
Nearby Weather Stations
Active Advisory: Special Statement Active Notice: Record Report

Elev 801 ft 45.68 °N, 121.57 °W | Updated 14 minutes ago

Rain
Rain
50.0 °F
Feels Like 50.0 °F
N
2.2
Wind Variable Wind from SW

Today
High -- | Low -- °F
--% Chance of Precip.
Yesterday
High -- | Low -- °F
Precip. -- in
7:22 AM 4:25 PM
Waxing Crescent, 41% visible
Pressure 29.65 in
Visibility 4.0 miles
Clouds Few 1000 ft
Overcast 3900 ft
Dew Point 50 °F
Humidity 99%
Rainfall 0.35 in
Snow Depth Not available.
UV 0 out of 12
Pollen .30 out of 12
Air Quality Not available.
Flu Activity Not available.
METAR KDLS 281453Z AUTO 00000KT 4SM BR FEW010 OVC039 10/09 A2965 RMK AO2 RAE09 SLP041 P0001 60003 T01000089 56020

More Conditions Fewer Conditions

Pressure 29.65 in
Visibility 4.0 miles
Clouds Few 1000 ft
Overcast 3900 ft
Dew Point 50 °F
Humidity 99%
Rainfall 0.35 in
Snow Depth Not available.
UV 0 out of 12
Pollen .30 out of 12
Air Quality Not available.
Flu Activity Not available.
METAR KDLS 281453Z AUTO 00000KT 4SM BR FEW010 OVC039 10/09 A2965 RMK AO2 RAE09 SLP041 P0001 60003 T01000089 56020

More Conditions Fewer Conditions

10-Day Weather Forecast

Almanac

Astronomy

Nov. 28, 2014 Rise Set
Actual Time
Civil Twilight
Nautical Twilight
Astronomical Twilight
Moon
Length of Visible Light
Length of Day
Tomorrow will be .
, % of the Moon is Illuminated

Today's Extremes

State Highs State Lows

Community

WunderPhotos

Upload Photos

1,774,226 photos uploaded!

WunderBlogs® & News

Nearby

Air Quality

  Air Quality AQ Index Pollutant
Not available.

Snow Depth

Station Depth Elevation

Earthquake Activity

City Distance Mag. Time & Date
Minimum magnitude displayed is 2.5.

Coastal Water Temperatures

Place Temperature

Nearby Weather Stations